Time;durP1;ratioP1;P1;durP2;ratioP2;P2;SDS_P1;SDS_P2;PMS_P1;PMS_P2;Temp;Humidity;BMP_temperature;BMP_pressure;BME280_temperature;BME280_humidity;BME280_pressure;Samples;Min_cycle;Max_cycle;Signal;HPM_P1;HPM_P2
2021/06/11 00:01:02;;;;;;;15.90;14.67;;;20.90;97.90;;;;;;5032623;28;20183;-83
2021/06/11 00:03:28;;;;;;;16.10;14.90;;;20.80;97.70;;;;;;5032580;28;20432;-83
2021/06/11 00:05:53;;;;;;;15.00;13.80;;;20.80;97.80;;;;;;5014003;28;20468;-83
2021/06/11 00:08:20;;;;;;;15.23;14.13;;;20.80;98.00;;;;;;5033957;28;20257;-83
2021/06/11 00:10:46;;;;;;;14.80;13.70;;;20.70;98.20;;;;;;5032559;28;20618;-83
2021/06/11 00:13:12;;;;;;;14.40;13.33;;;20.70;98.50;;;;;;5017058;28;20758;-83
2021/06/11 00:15:37;;;;;;;14.93;13.83;;;20.70;98.40;;;;;;5051728;28;20427;-82
2021/06/11 00:18:04;;;;;;;15.57;14.17;;;20.70;98.40;;;;;;5052496;28;20455;-83
2021/06/11 00:20:30;;;;;;;14.20;13.13;;;20.60;98.50;;;;;;5051708;28;20182;-82
2021/06/11 00:22:56;;;;;;;15.07;13.77;;;20.60;98.60;;;;;;5052338;28;20401;-83
2021/06/11 00:25:23;;;;;;;15.80;14.63;;;20.60;98.60;;;;;;5051716;28;21044;-83
2021/06/11 00:27:50;;;;;;;15.53;14.43;;;20.60;98.70;;;;;;5051480;28;20288;-83
2021/06/11 00:30:20;;;;;;;15.40;14.33;;;20.60;98.80;;;;;;5052353;28;20411;-83
2021/06/11 00:32:46;;;;;;;15.77;14.47;;;20.50;98.80;;;;;;5051411;28;20416;-83
2021/06/11 00:35:12;;;;;;;16.57;15.17;;;20.50;98.80;;;;;;5034442;28;20404;-83
2021/06/11 00:37:38;;;;;;;15.87;14.73;;;20.40;98.80;;;;;;5051154;28;20221;-82
2021/06/11 00:40:07;;;;;;;15.13;14.13;;;20.40;98.70;;;;;;5036664;28;20863;-83
2021/06/11 00:42:33;;;;;;;15.40;14.40;;;20.40;98.70;;;;;;5031322;28;20421;-82
2021/06/11 00:45:00;;;;;;;15.60;14.33;;;20.40;98.70;;;;;;5032071;28;20424;-83
2021/06/11 00:47:26;;;;;;;16.07;14.93;;;20.40;98.90;;;;;;5014093;28;20217;-83
2021/06/11 00:49:51;;;;;;;14.90;13.70;;;20.40;98.80;;;;;;5031364;28;20409;-83
2021/06/11 00:52:17;;;;;;;14.77;13.77;;;20.30;99.10;;;;;;5031617;28;20475;-83
2021/06/11 00:54:44;;;;;;;16.30;14.90;;;20.30;99.20;;;;;;5031268;28;20178;-82
2021/06/11 00:57:09;;;;;;;15.93;14.70;;;20.30;99.20;;;;;;5032211;28;20439;-83
2021/06/11 00:59:39;;;;;;;15.30;14.00;;;20.30;98.90;;;;;;5035848;28;20456;-82
2021/06/11 01:02:04;;;;;;;14.60;13.50;;;20.20;99.10;;;;;;5056073;28;20169;-83
2021/06/11 01:04:30;;;;;;;16.27;15.07;;;20.20;99.30;;;;;;5055977;28;20453;-83
2021/06/11 01:06:56;;;;;;;16.73;15.43;;;20.20;99.30;;;;;;5055454;28;20295;-82
2021/06/11 01:09:23;;;;;;;15.90;14.60;;;20.10;99.20;;;;;;5055366;28;20242;-83
2021/06/11 01:11:49;;;;;;;15.57;14.43;;;20.10;99.40;;;;;;5054950;28;20424;-83
2021/06/11 01:14:16;;;;;;;16.07;14.87;;;20.10;99.50;;;;;;5055930;28;20411;-82
2021/06/11 01:16:42;;;;;;;15.57;14.47;;;20.10;99.30;;;;;;5054821;28;20467;-82
2021/06/11 01:19:10;;;;;;;14.90;13.70;;;20.00;99.20;;;;;;5055780;28;20762;-83
2021/06/11 01:21:45;;;;;;;15.70;14.50;;;20.00;99.40;;;;;;5054072;28;20178;-82
2021/06/11 01:24:15;;;;;;;16.23;14.93;;;20.10;99.30;;;;;;5055749;28;20453;-83
2021/06/11 01:26:47;;;;;;;17.03;15.67;;;20.00;99.50;;;;;;5054762;28;20970;-83
2021/06/11 01:29:17;;;;;;;17.00;15.70;;;20.00;99.60;;;;;;5055327;28;20783;-83
2021/06/11 01:31:46;;;;;;;16.30;14.87;;;20.00;99.40;;;;;;5055019;28;20415;-83
2021/06/11 01:34:28;;;;;;;16.53;15.07;;;20.00;99.40;;;;;;5055236;28;20461;-83
2021/06/11 01:36:58;;;;;;;15.30;13.80;;;19.90;99.30;;;;;;5054756;28;20419;-83
2021/06/11 01:39:26;;;;;;;15.17;14.17;;;19.90;99.60;;;;;;5055318;28;20411;-83
2021/06/11 01:41:53;;;;;;;15.03;14.00;;;19.80;99.60;;;;;;5052097;28;20935;-83
2021/06/11 01:44:21;;;;;;;15.73;14.37;;;19.80;99.60;;;;;;5055307;28;20416;-83
2021/06/11 01:46:49;;;;;;;16.30;15.10;;;19.80;99.60;;;;;;5054399;28;20533;-83
2021/06/11 01:49:17;;;;;;;17.23;15.93;;;19.80;99.50;;;;;;5055245;28;20404;-83
2021/06/11 01:51:44;;;;;;;15.57;14.47;;;19.70;99.80;;;;;;5054115;28;20488;-83
2021/06/11 01:54:11;;;;;;;15.53;14.47;;;19.70;99.80;;;;;;5054821;28;20908;-84
2021/06/11 01:56:38;;;;;;;15.77;14.43;;;19.70;99.90;;;;;;5054614;28;20440;-82
2021/06/11 01:59:04;;;;;;;15.07;14.07;;;19.70;99.70;;;;;;5054008;28;20428;-83
2021/06/11 02:01:33;;;;;;;16.30;15.00;;;19.60;99.90;;;;;;5051968;28;20797;-83
2021/06/11 02:04:00;;;;;;;17.27;16.03;;;19.60;99.90;;;;;;5054130;28;20416;-83
2021/06/11 02:06:27;;;;;;;15.50;14.20;;;19.60;99.90;;;;;;5054777;28;20550;-83
2021/06/11 02:08:54;;;;;;;17.13;15.83;;;19.60;99.90;;;;;;5053846;28;20412;-83
2021/06/11 02:11:21;;;;;;;16.33;15.13;;;19.60;99.90;;;;;;5053663;28;20448;-83
2021/06/11 02:13:49;;;;;;;17.30;16.00;;;19.50;99.90;;;;;;5034595;28;20423;-83
2021/06/11 02:16:16;;;;;;;17.07;15.80;;;19.60;99.90;;;;;;5035689;28;20460;-83
2021/06/11 02:18:43;;;;;;;16.33;15.03;;;19.60;99.90;;;;;;5034073;28;20398;-82
2021/06/11 02:21:12;;;;;;;16.60;15.10;;;19.50;99.90;;;;;;5034687;28;20435;-83
2021/06/11 02:23:40;;;;;;;16.47;14.97;;;19.50;99.80;;;;;;5034113;28;20408;-81
2021/06/11 02:26:13;;;;;;;17.60;16.00;;;19.50;99.80;;;;;;5040764;28;20443;-83
2021/06/11 02:28:39;;;;;;;17.53;16.33;;;19.50;99.90;;;;;;5054047;28;20404;-81
2021/06/11 02:31:05;;;;;;;17.47;16.17;;;19.40;99.80;;;;;;5054216;28;20804;-83
2021/06/11 02:33:31;;;;;;;17.40;15.90;;;19.40;99.70;;;;;;5054532;28;20419;-83
2021/06/11 02:35:57;;;;;;;17.20;15.90;;;19.40;99.50;;;;;;5053450;28;20782;-82
2021/06/11 02:38:24;;;;;;;16.13;14.90;;;19.40;99.40;;;;;;5054069;28;20170;-83
2021/06/11 02:40:50;;;;;;;17.50;16.20;;;19.30;99.40;;;;;;5053239;28;20511;-83
2021/06/11 02:43:19;;;;;;;17.10;15.90;;;19.30;99.50;;;;;;5054224;28;20404;-83
2021/06/11 02:46:13;;;;;;;17.70;16.40;;;19.30;99.50;;;;;;5053311;28;21030;-82
2021/06/11 02:48:45;;;;;;;17.70;16.40;;;19.40;99.60;;;;;;5051472;28;20416;-81
2021/06/11 02:51:46;;;;;;;17.37;16.10;;;19.30;99.90;;;;;;5027888;28;20475;-83
2021/06/11 02:54:17;;;;;;;17.30;16.00;;;19.30;99.50;;;;;;5034079;28;20404;-84
2021/06/11 02:56:47;;;;;;;17.07;15.87;;;19.30;99.50;;;;;;5033242;28;20760;-83
2021/06/11 02:59:32;;;;;;;16.50;15.20;;;19.30;99.30;;;;;;5033994;28;20401;-84
2021/06/11 03:02:04;;;;;;;17.90;16.40;;;19.30;99.40;;;;;;5033213;28;20405;-84
2021/06/11 03:04:31;;;;;;;17.20;16.00;;;19.30;99.40;;;;;;5033900;28;20405;-84
2021/06/11 03:06:58;;;;;;;17.77;16.47;;;19.20;99.40;;;;;;5032987;28;20460;-84
2021/06/11 03:09:26;;;;;;;17.47;16.00;;;19.30;99.30;;;;;;5033666;28;20449;-83
2021/06/11 03:11:55;;;;;;;16.30;15.10;;;19.30;99.40;;;;;;5038190;28;20767;-83
2021/06/11 03:14:21;;;;;;;18.00;16.60;;;19.30;99.50;;;;;;5053630;28;20764;-84
2021/06/11 03:16:55;;;;;;;16.43;15.20;;;19.30;99.40;;;;;;5052500;28;20452;-83
2021/06/11 03:19:24;;;;;;;16.70;15.40;;;19.20;99.70;;;;;;5053689;28;20396;-84
2021/06/11 03:21:57;;;;;;;17.87;16.40;;;19.20;99.40;;;;;;5052358;28;20408;-83
2021/06/11 03:24:30;;;;;;;17.60;16.20;;;19.20;99.40;;;;;;5053549;28;20487;-85
2021/06/11 03:27:12;;;;;;;15.77;14.60;;;19.20;99.50;;;;;;5052594;28;20846;-85
2021/06/11 03:30:08;;;;;;;17.13;15.90;;;19.20;99.60;;;;;;5053613;28;20872;-85
2021/06/11 03:32:42;;;;;;;17.97;16.67;;;19.20;99.60;;;;;;5029081;28;20421;-85
2021/06/11 03:35:22;;;;;;;18.17;16.77;;;19.10;99.50;;;;;;5033342;28;20417;-86
2021/06/11 03:37:54;;;;;;;17.80;16.53;;;19.10;99.70;;;;;;5032538;28;20393;-84
2021/06/11 03:40:24;;;;;;;18.90;17.40;;;19.10;99.70;;;;;;5033244;28;20425;-84
2021/06/11 03:42:52;;;;;;;18.23;16.83;;;19.10;99.90;;;;;;5046442;28;20412;-85
2021/06/11 03:45:19;;;;;;;20.90;19.40;;;19.10;99.80;;;;;;5053158;28;20747;-85
2021/06/11 03:47:47;;;;;;;16.60;15.40;;;19.10;99.70;;;;;;5051665;28;20413;-84
2021/06/11 03:50:19;;;;;;;17.77;16.27;;;19.10;99.90;;;;;;5033277;28;20417;-85
2021/06/11 03:52:47;;;;;;;20.90;19.37;;;19.20;99.80;;;;;;5014723;28;20437;-83
2021/06/11 03:55:19;;;;;;;18.13;16.70;;;19.10;99.60;;;;;;5032652;28;20412;-84
2021/06/11 03:57:55;;;;;;;17.70;16.10;;;19.10;99.60;;;;;;5043266;28;20510;-83
2021/06/11 04:00:22;;;;;;;16.37;15.17;;;19.10;99.60;;;;;;5052747;28;20778;-85
2021/06/11 04:02:49;;;;;;;16.63;15.33;;;19.10;99.90;;;;;;5051874;28;20400;-84
2021/06/11 04:05:15;;;;;;;17.60;16.27;;;19.10;99.90;;;;;;5052721;28;20438;-85
2021/06/11 04:07:50;;;;;;;18.33;16.93;;;19.20;99.90;;;;;;5052602;28;20427;-85
2021/06/11 04:10:22;;;;;;;18.33;16.87;;;19.10;99.90;;;;;;5034572;28;20412;-85
2021/06/11 04:12:52;;;;;;;20.30;18.90;;;19.20;99.90;;;;;;5051770;28;20429;-84
2021/06/11 04:15:19;;;;;;;17.03;15.80;;;19.20;99.90;;;;;;5045932;28;20407;-84
2021/06/11 04:17:52;;;;;;;17.90;16.43;;;19.20;99.90;;;;;;5032182;28;20803;-83
2021/06/11 04:20:28;;;;;;;17.30;15.90;;;19.20;99.90;;;;;;5032382;28;20432;-85
2021/06/11 04:22:57;;;;;;;19.27;17.87;;;19.20;99.90;;;;;;5042585;28;20491;-84
2021/06/11 04:25:29;;;;;;;18.27;16.87;;;19.20;99.90;;;;;;5052339;28;20412;-85
2021/06/11 04:27:57;;;;;;;17.90;16.47;;;19.20;99.90;;;;;;5051574;28;20401;-85
2021/06/11 04:30:23;;;;;;;17.47;16.17;;;19.30;99.90;;;;;;5049813;28;20797;-85
2021/06/11 04:32:49;;;;;;;17.80;16.50;;;19.30;99.90;;;;;;5050879;28;20923;-85
2021/06/11 04:35:21;;;;;;;17.97;16.67;;;19.30;99.90;;;;;;5051895;28;20474;-83
2021/06/11 04:37:47;;;;;;;17.83;16.53;;;19.30;99.90;;;;;;5051747;28;20520;-83
2021/06/11 04:40:13;;;;;;;17.37;16.07;;;19.40;99.90;;;;;;5052296;28;20420;-85
2021/06/11 04:42:38;;;;;;;21.47;20.07;;;19.40;99.80;;;;;;5051926;28;20428;-85
2021/06/11 04:45:05;;;;;;;19.30;17.80;;;19.40;99.90;;;;;;5049454;28;21135;-84
2021/06/11 04:47:31;;;;;;;19.73;18.13;;;19.40;99.80;;;;;;5040317;28;20556;-85
2021/06/11 04:49:57;;;;;;;18.77;17.33;;;19.40;99.90;;;;;;5051206;28;20455;-84
2021/06/11 04:52:22;;;;;;;18.33;16.73;;;19.40;99.70;;;;;;5052042;28;20169;-84
2021/06/11 04:54:48;;;;;;;18.30;16.90;;;19.50;99.90;;;;;;5050768;28;20550;-83
2021/06/11 04:57:15;;;;;;;18.37;16.77;;;19.50;99.70;;;;;;5044110;28;20189;-84
2021/06/11 04:59:41;;;;;;;18.77;17.27;;;19.50;99.90;;;;;;5029626;28;20469;-85
2021/06/11 05:02:07;;;;;;;18.73;17.13;;;19.60;99.90;;;;;;5047144;28;20412;-84
2021/06/11 05:04:33;;;;;;;19.07;17.60;;;19.60;99.90;;;;;;5051702;28;20181;-84
2021/06/11 05:07:00;;;;;;;19.00;17.53;;;19.60;99.90;;;;;;5031191;28;20206;-84
2021/06/11 05:09:25;;;;;;;17.97;16.60;;;19.70;99.90;;;;;;5051752;28;20641;-83
2021/06/11 05:11:51;;;;;;;18.20;16.70;;;19.70;99.90;;;;;;5038140;28;20421;-84
2021/06/11 05:14:17;;;;;;;16.87;15.47;;;19.70;99.90;;;;;;5040926;28;20197;-84
2021/06/11 05:16:43;;;;;;;18.20;16.77;;;19.80;99.90;;;;;;5039462;28;20247;-84
2021/06/11 05:19:09;;;;;;;18.87;17.00;;;19.80;99.90;;;;;;5030743;28;20729;-84
2021/06/11 05:21:35;;;;;;;18.77;16.97;;;19.90;99.90;;;;;;5051836;28;20404;-84
2021/06/11 05:24:00;;;;;;;17.03;15.73;;;19.90;99.90;;;;;;5049202;28;20530;-87
2021/06/11 05:26:26;;;;;;;18.10;16.50;;;20.00;99.90;;;;;;5040601;28;20483;-86
2021/06/11 05:28:52;;;;;;;19.57;18.07;;;20.00;99.90;;;;;;5030761;28;20202;-84
2021/06/11 05:31:18;;;;;;;18.43;16.63;;;20.10;99.90;;;;;;5031622;28;20253;-85
2021/06/11 05:33:43;;;;;;;19.37;17.67;;;20.10;99.70;;;;;;5013606;28;20515;-85
2021/06/11 05:36:09;;;;;;;19.53;17.63;;;20.20;99.90;;;;;;5030681;28;20178;-85
2021/06/11 05:38:35;;;;;;;19.50;17.70;;;20.20;99.50;;;;;;5014165;28;20609;-84
2021/06/11 05:41:02;;;;;;;21.83;20.03;;;20.30;99.70;;;;;;5013377;28;20179;-85
2021/06/11 05:43:29;;;;;;;21.47;19.53;;;20.30;99.70;;;;;;5044101;28;20467;-85
2021/06/11 05:45:56;;;;;;;22.50;20.40;;;20.30;99.60;;;;;;5053191;28;20456;-85
2021/06/11 05:48:22;;;;;;;20.07;18.13;;;20.40;99.80;;;;;;5055205;28;20401;-86
2021/06/11 05:50:48;;;;;;;21.20;19.40;;;20.50;99.90;;;;;;5054785;28;20491;-84
2021/06/11 05:53:14;;;;;;;21.83;19.80;;;20.50;99.70;;;;;;5054846;28;20404;-87
2021/06/11 05:55:40;;;;;;;20.40;18.70;;;20.50;99.40;;;;;;5054786;28;20986;-85
2021/06/11 05:58:09;;;;;;;21.20;19.30;;;20.60;99.60;;;;;;5053966;28;20180;-85
2021/06/11 06:00:35;;;;;;;20.77;18.63;;;20.70;99.90;;;;;;5054887;28;20530;-85
2021/06/11 06:03:01;;;;;;;21.77;19.80;;;20.70;99.90;;;;;;5036294;28;20416;-85
2021/06/11 06:05:26;;;;;;;21.77;19.87;;;20.80;99.90;;;;;;5054512;28;20170;-82
2021/06/11 06:07:52;;;;;;;21.33;19.27;;;20.90;99.90;;;;;;5036622;28;20606;-80
2021/06/11 06:10:18;;;;;;;20.60;18.80;;;20.90;99.90;;;;;;5035419;28;20698;-80
2021/06/11 06:12:44;;;;;;;22.07;20.00;;;21.00;99.90;;;;;;5034907;28;20170;-80
2021/06/11 06:15:10;;;;;;;20.77;18.73;;;21.00;99.90;;;;;;5033709;28;20478;-80
2021/06/11 06:17:36;;;;;;;20.83;18.70;;;21.10;99.80;;;;;;5034404;28;20226;-80
2021/06/11 06:20:04;;;;;;;21.67;19.80;;;21.10;99.90;;;;;;5033961;28;20425;-83
2021/06/11 06:22:30;;;;;;;21.97;20.10;;;21.20;99.90;;;;;;5034585;28;20308;-83
2021/06/11 06:24:56;;;;;;;22.43;19.13;;;21.30;99.80;;;;;;5034151;28;20424;-85
2021/06/11 06:27:22;;;;;;;21.20;19.40;;;21.40;99.50;;;;;;5055041;28;20229;-88
2021/06/11 06:29:47;;;;;;;20.83;19.03;;;21.50;99.90;;;;;;5054980;28;20545;-82
2021/06/11 06:32:13;;;;;;;20.73;18.77;;;21.50;99.70;;;;;;5049241;28;20170;-84
2021/06/11 06:34:39;;;;;;;20.87;18.87;;;21.60;98.80;;;;;;5016958;28;20181;-83
2021/06/11 06:37:06;;;;;;;21.83;19.73;;;21.70;99.60;;;;;;5033370;28;20195;-82
2021/06/11 06:39:32;;;;;;;21.43;18.03;;;21.80;99.20;;;;;;5019551;28;20181;-82
2021/06/11 06:41:58;;;;;;;20.10;18.27;;;21.90;99.10;;;;;;5034420;28;20801;-83
2021/06/11 06:44:24;;;;;;;18.10;16.70;;;21.90;98.50;;;;;;5039579;28;20252;-81
2021/06/11 06:46:50;;;;;;;18.93;17.13;;;22.00;98.10;;;;;;5036640;28;20548;-81
2021/06/11 06:49:16;;;;;;;19.37;17.47;;;22.10;98.90;;;;;;5046937;28;20486;-81
2021/06/11 06:51:41;;;;;;;19.07;17.40;;;22.20;98.50;;;;;;5052406;28;20182;-82
2021/06/11 06:54:07;;;;;;;18.87;15.40;;;22.30;98.30;;;;;;5052302;28;20180;-81
2021/06/11 06:56:33;;;;;;;17.87;16.27;;;22.40;97.80;;;;;;5048264;28;20668;-81
2021/06/11 06:58:59;;;;;;;17.03;15.53;;;22.50;98.00;;;;;;5037187;28;20629;-82
2021/06/11 07:01:25;;;;;;;17.60;15.80;;;22.70;97.60;;;;;;5052377;28;20174;-82
2021/06/11 07:03:59;;;;;;;17.93;16.33;;;22.80;97.80;;;;;;5046103;28;20416;-82
2021/06/11 07:06:26;;;;;;;17.20;15.60;;;22.90;97.20;;;;;;5035002;28;20977;-82
2021/06/11 07:08:52;;;;;;;16.50;15.10;;;23.10;97.00;;;;;;5053359;28;20420;-80
2021/06/11 07:11:18;;;;;;;16.80;15.40;;;23.20;97.10;;;;;;5051414;28;20413;-80
2021/06/11 07:13:44;;;;;;;16.83;15.37;;;23.30;96.20;;;;;;5033280;28;20429;-81
2021/06/11 07:16:10;;;;;;;17.57;16.00;;;23.30;96.00;;;;;;5032617;28;20804;-82
2021/06/11 07:18:37;;;;;;;15.70;14.40;;;23.50;95.90;;;;;;5051387;28;20231;-82
2021/06/11 07:21:06;;;;;;;17.10;15.50;;;23.60;96.10;;;;;;5039085;28;20681;-79
2021/06/11 07:23:33;;;;;;;16.10;14.80;;;23.70;95.90;;;;;;5026563;28;20515;-80
2021/06/11 07:26:02;;;;;;;15.37;14.03;;;23.80;95.40;;;;;;5047327;28;20476;-82
2021/06/11 07:28:28;;;;;;;16.37;14.73;;;24.00;95.10;;;;;;5040925;28;20423;-81
2021/06/11 07:30:55;;;;;;;16.00;14.60;;;24.10;96.30;;;;;;5023504;28;20408;-81
2021/06/11 07:33:21;;;;;;;14.77;13.47;;;24.20;95.90;;;;;;5034700;28;20193;-80
2021/06/11 07:35:46;;;;;;;15.37;13.00;;;24.40;94.80;;;;;;5025190;28;20424;-80
2021/06/11 07:38:12;;;;;;;15.27;13.63;;;24.50;96.00;;;;;;5048102;28;20178;-87
2021/06/11 07:40:38;;;;;;;15.90;14.27;;;24.70;96.20;;;;;;5024801;28;20311;-82
2021/06/11 07:43:04;;;;;;;14.50;13.20;;;24.80;95.30;;;;;;5051911;28;20184;-80
2021/06/11 07:45:31;;;;;;;18.40;12.60;;;24.90;95.30;;;;;;5052516;28;20178;-88
2021/06/11 07:47:57;;;;;;;14.67;13.20;;;25.10;95.30;;;;;;5052606;28;20173;-90
2021/06/11 07:50:23;;;;;;;13.87;12.57;;;25.20;94.90;;;;;;5034741;28;20934;-93
2021/06/11 07:52:49;;;;;;;14.13;12.93;;;25.30;94.10;;;;;;5047911;28;20185;-86
2021/06/11 07:55:15;;;;;;;13.80;12.50;;;25.40;93.00;;;;;;5032110;28;20471;-84
2021/06/11 07:57:41;;;;;;;13.53;12.43;;;25.50;93.20;;;;;;5044632;28;20431;-86
2021/06/11 08:00:08;;;;;;;118.70;106.13;;;25.60;92.50;;;;;;5048307;28;20420;-94
2021/06/11 08:02:34;;;;;;;74.67;61.90;;;25.70;92.50;;;;;;5052936;28;20438;-88
2021/06/11 08:05:00;;;;;;;44.90;40.07;;;25.80;92.60;;;;;;5047337;28;20573;-89
2021/06/11 08:07:30;;;;;;;118.80;100.83;;;25.90;91.90;;;;;;5034142;28;20610;-89
2021/06/11 08:09:59;;;;;;;44.07;39.70;;;26.00;90.20;;;;;;5025466;28;20239;-87
2021/06/11 08:12:29;;;;;;;16.10;14.80;;;26.10;90.00;;;;;;5033110;28;20424;-91
2021/06/11 08:14:55;;;;;;;13.73;12.27;;;26.20;90.40;;;;;;5015453;28;20421;-88
2021/06/11 08:17:20;;;;;;;13.33;12.13;;;26.20;90.30;;;;;;5014726;28;20789;-83
2021/06/11 08:19:46;;;;;;;14.27;12.90;;;26.30;90.00;;;;;;5043463;28;20264;-84
2021/06/11 08:22:12;;;;;;;12.87;11.80;;;26.20;89.00;;;;;;5050338;28;20252;-84
2021/06/11 08:24:37;;;;;;;12.17;11.23;;;26.30;89.60;;;;;;5050715;28;20196;-90
2021/06/11 08:27:06;;;;;;;11.57;10.57;;;26.30;87.70;;;;;;5047584;28;20232;-87
2021/06/11 08:29:31;;;;;;;12.53;11.53;;;26.40;88.00;;;;;;5020417;28;20174;-86
2021/06/11 08:31:58;;;;;;;13.63;10.60;;;26.50;87.60;;;;;;5032326;28;20421;-86
2021/06/11 08:34:25;;;;;;;12.67;11.47;;;26.60;88.40;;;;;;5032258;28;20181;-85
2021/06/11 08:37:27;;;;;;;151.00;121.33;;;26.70;88.00;;;;;;5046012;28;20425;-96
2021/06/11 08:40:15;;;;;;;22.23;20.10;;;26.80;87.30;;;;;;5008043;28;20421;-96
2021/06/11 08:42:45;;;;;;;14.10;12.67;;;26.90;86.60;;;;;;5041341;28;20427;-96
2021/06/11 08:45:15;;;;;;;12.30;11.20;;;27.00;85.90;;;;;;5025848;28;20816;-96
2021/06/11 08:47:49;;;;;;;12.57;11.47;;;27.20;86.90;;;;;;5012871;28;20471;-90
2021/06/11 08:50:20;;;;;;;10.50;9.50;;;27.30;86.10;;;;;;5033422;28;20406;-92
2021/06/11 08:52:47;;;;;;;11.40;10.30;;;27.40;88.40;;;;;;5015649;28;20449;-92
2021/06/11 08:55:57;;;;;;;12.60;11.30;;;27.50;88.00;;;;;;5037631;28;20416;-92
2021/06/11 08:58:25;;;;;;;13.83;12.07;;;27.50;85.20;;;;;;5017718;28;20433;-92
2021/06/11 09:00:51;;;;;;;285.43;235.47;;;27.70;83.30;;;;;;5063776;28;20499;-89
2021/06/11 09:03:21;;;;;;;83.00;73.90;;;27.60;83.10;;;;;;5047395;28;20913;-89
2021/06/11 09:05:54;;;;;;;19.27;17.33;;;27.50;84.10;;;;;;5022483;28;20285;-90
2021/06/11 09:08:23;;;;;;;13.33;11.97;;;27.40;85.00;;;;;;5042799;28;20923;-89
2021/06/11 09:10:52;;;;;;;13.63;12.33;;;27.40;85.80;;;;;;5040109;28;20496;-86
2021/06/11 09:13:24;;;;;;;14.30;12.90;;;27.30;85.40;;;;;;5040609;28;20916;-90
2021/06/11 09:15:50;;;;;;;14.10;12.90;;;27.20;84.90;;;;;;5040155;28;20426;-92
2021/06/11 09:18:24;;;;;;;13.50;12.40;;;27.10;85.80;;;;;;5042463;28;20389;-91
2021/06/11 09:20:50;;;;;;;13.50;12.40;;;27.00;84.40;;;;;;5043246;28;20766;-89
2021/06/11 09:23:17;;;;;;;14.07;12.97;;;26.90;83.10;;;;;;5047174;28;20409;-89
2021/06/11 09:25:49;;;;;;;15.20;13.90;;;27.00;85.50;;;;;;5052992;28;20534;-88
2021/06/11 09:28:23;;;;;;;17.33;15.60;;;27.10;85.50;;;;;;5046294;28;20462;-87
2021/06/11 09:30:54;;;;;;;15.70;14.30;;;27.20;85.40;;;;;;5035933;28;20415;-88
2021/06/11 09:33:22;;;;;;;16.93;15.43;;;27.40;86.90;;;;;;5051501;28;20422;-94
2021/06/11 09:35:54;;;;;;;15.67;14.27;;;27.50;87.50;;;;;;5045855;28;20420;-92
2021/06/11 09:38:22;;;;;;;16.00;14.60;;;27.60;85.90;;;;;;5044009;28;20918;-88
2021/06/11 09:41:08;;;;;;;15.37;13.97;;;27.70;86.00;;;;;;5044054;28;20413;-91
2021/06/11 09:43:34;;;;;;;13.83;12.73;;;27.60;85.90;;;;;;5044395;28;20976;-89
2021/06/11 09:46:04;;;;;;;15.27;13.63;;;27.60;86.90;;;;;;5044514;28;20517;-86
2021/06/11 09:48:38;;;;;;;15.03;13.83;;;27.70;86.80;;;;;;5043248;28;20420;-84
2021/06/11 09:51:12;;;;;;;16.83;15.27;;;27.70;86.30;;;;;;5043736;28;20547;-86
2021/06/11 09:53:38;;;;;;;18.30;16.43;;;27.70;86.70;;;;;;5053583;28;20621;-88
2021/06/11 09:56:04;;;;;;;15.70;14.40;;;27.70;85.60;;;;;;5030115;28;20499;-85
2021/06/11 09:58:34;;;;;;;127.47;115.37;;;27.90;88.30;;;;;;5043311;28;20193;-88
2021/06/11 10:01:10;;;;;;;172.43;154.53;;;28.00;85.80;;;;;;5054945;28;20174;-87
2021/06/11 10:03:37;;;;;;;23.93;21.93;;;27.90;84.60;;;;;;5054642;28;20399;-87
2021/06/11 10:06:06;;;;;;;17.73;16.10;;;27.90;84.40;;;;;;5043113;28;20460;-87
2021/06/11 10:08:32;;;;;;;17.03;15.50;;;28.00;85.60;;;;;;5036773;28;20419;-88
2021/06/11 10:11:01;;;;;;;18.57;16.27;;;28.10;85.80;;;;;;5050736;28;20424;-88
2021/06/11 10:13:27;;;;;;;16.47;15.17;;;28.20;81.10;;;;;;5054040;28;20198;-89
2021/06/11 10:15:56;;;;;;;18.53;16.77;;;28.30;84.70;;;;;;5036744;28;20409;-87
2021/06/11 10:18:23;;;;;;;18.90;17.30;;;28.40;83.30;;;;;;5042220;28;20412;-85
2021/06/11 10:20:49;;;;;;;16.03;14.73;;;28.50;82.70;;;;;;5054525;28;20423;-86
2021/06/11 10:23:18;;;;;;;16.60;14.80;;;28.60;84.20;;;;;;5036025;28;20508;-86
2021/06/11 10:25:46;;;;;;;44.73;40.17;;;28.70;83.30;;;;;;5034919;28;20424;-86
2021/06/11 10:28:18;;;;;;;113.73;102.07;;;28.80;81.60;;;;;;5033738;28;20947;-85
2021/06/11 10:30:46;;;;;;;19.30;17.90;;;28.80;81.40;;;;;;5043398;28;20947;-87
2021/06/11 10:33:11;;;;;;;15.27;14.27;;;28.80;79.20;;;;;;5038994;28;20440;-82
2021/06/11 10:35:46;;;;;;;14.50;13.40;;;28.90;78.10;;;;;;5044358;28;20417;-84
2021/06/11 10:38:33;;;;;;;15.10;14.13;;;29.00;77.50;;;;;;5053095;28;20169;-84
2021/06/11 10:41:03;;;;;;;14.13;13.27;;;29.00;78.00;;;;;;5035246;28;20487;-83
2021/06/11 10:43:35;;;;;;;15.50;14.40;;;29.00;79.20;;;;;;5053530;28;20499;-83
2021/06/11 10:46:02;;;;;;;16.33;15.00;;;29.10;77.10;;;;;;5053921;28;20452;-83
2021/06/11 10:49:06;;;;;;;14.30;13.37;;;29.10;78.50;;;;;;5053810;28;20407;-83
2021/06/11 10:51:50;;;;;;;13.00;12.00;;;29.30;80.10;;;;;;4973466;28;20580;-83
2021/06/11 10:54:19;;;;;;;15.57;14.57;;;29.30;76.70;;;;;;5048732;28;20511;-83
2021/06/11 10:56:57;;;;;;;14.73;13.70;;;29.30;75.50;;;;;;5054484;28;20449;-83
2021/06/11 10:59:32;;;;;;;15.13;14.13;;;29.40;77.60;;;;;;5053674;28;20411;-83
2021/06/11 11:01:58;;;;;;;14.10;13.10;;;29.50;77.10;;;;;;5036527;28;20442;-83
2021/06/11 11:04:30;;;;;;;14.40;13.50;;;29.40;74.60;;;;;;5053584;28;20506;-83
2021/06/11 11:06:56;;;;;;;14.73;13.77;;;29.40;73.60;;;;;;5054058;28;20538;-83
2021/06/11 11:09:21;;;;;;;15.50;14.50;;;29.40;76.00;;;;;;5053471;28;20431;-83
2021/06/11 11:11:57;;;;;;;16.00;14.90;;;29.40;74.70;;;;;;5053778;28;20708;-83
2021/06/11 11:14:40;;;;;;;13.80;12.77;;;29.40;76.00;;;;;;5053467;28;20165;-83
2021/06/11 11:17:06;;;;;;;12.93;12.00;;;29.50;75.60;;;;;;5053292;28;20809;-82
2021/06/11 11:19:45;;;;;;;13.60;12.60;;;29.50;77.80;;;;;;5053984;28;20520;-83
2021/06/11 11:22:31;;;;;;;15.10;14.00;;;29.60;77.20;;;;;;5053045;28;20766;-83
2021/06/11 11:24:59;;;;;;;13.33;12.53;;;29.70;76.70;;;;;;5035531;28;20424;-83
2021/06/11 11:27:26;;;;;;;14.30;13.30;;;29.70;74.30;;;;;;5052074;28;20464;-83
2021/06/11 11:29:53;;;;;;;14.53;13.63;;;29.70;74.90;;;;;;5053479;28;20400;-83
2021/06/11 11:32:20;;;;;;;15.10;14.00;;;29.80;76.50;;;;;;5052936;28;20862;-82
2021/06/11 11:34:45;;;;;;;15.60;14.70;;;29.80;75.70;;;;;;5053658;28;20439;-83
2021/06/11 11:37:13;;;;;;;13.90;12.60;;;29.80;76.30;;;;;;5052944;28;20497;-83
2021/06/11 11:39:40;;;;;;;14.40;13.50;;;29.80;73.90;;;;;;5053384;28;20654;-83
2021/06/11 11:42:07;;;;;;;14.40;13.50;;;29.70;72.50;;;;;;5053151;28;20392;-83
2021/06/11 11:44:33;;;;;;;14.33;13.47;;;29.60;71.80;;;;;;5053551;28;20492;-83
2021/06/11 11:47:00;;;;;;;14.03;13.13;;;29.60;72.90;;;;;;5053450;28;20456;-83
2021/06/11 11:49:25;;;;;;;13.27;12.47;;;29.70;74.20;;;;;;5052693;28;20396;-83
2021/06/11 11:51:51;;;;;;;13.40;12.50;;;29.70;70.80;;;;;;5053208;28;20490;-83
2021/06/11 11:54:18;;;;;;;12.10;11.07;;;29.70;72.50;;;;;;5052762;28;20614;-83
2021/06/11 11:56:44;;;;;;;11.83;10.93;;;29.70;73.50;;;;;;5053075;28;20231;-83
2021/06/11 11:59:10;;;;;;;13.07;12.27;;;29.70;75.30;;;;;;5052376;28;20895;-83
2021/06/11 12:01:38;;;;;;;12.70;11.90;;;29.80;72.00;;;;;;5053221;28;20635;-83
2021/06/11 12:04:03;;;;;;;13.07;12.27;;;29.80;73.70;;;;;;5053172;28;20174;-83
2021/06/11 12:06:29;;;;;;;12.77;12.07;;;29.80;74.00;;;;;;5052501;28;20451;-83
2021/06/11 12:08:55;;;;;;;13.23;12.30;;;29.80;72.50;;;;;;5053072;28;20176;-83
2021/06/11 12:11:20;;;;;;;11.33;10.70;;;29.90;74.70;;;;;;5052533;28;20174;-83
2021/06/11 12:13:46;;;;;;;13.17;12.40;;;29.80;71.30;;;;;;5053537;28;20174;-83
2021/06/11 12:16:13;;;;;;;12.30;11.37;;;29.70;70.30;;;;;;5052253;28;20217;-82
2021/06/11 12:18:39;;;;;;;12.10;11.30;;;29.70;72.70;;;;;;5052937;28;20181;-83
2021/06/11 12:21:07;;;;;;;12.63;11.87;;;29.70;71.10;;;;;;5052900;28;20424;-83
2021/06/11 12:23:33;;;;;;;12.43;11.57;;;29.70;71.20;;;;;;5052908;28;20164;-83
2021/06/11 12:25:59;;;;;;;12.73;11.83;;;29.70;73.10;;;;;;5052817;28;20444;-83
2021/06/11 12:28:25;;;;;;;12.27;11.43;;;29.60;72.70;;;;;;5051849;28;20170;-83
2021/06/11 12:30:51;;;;;;;13.57;12.67;;;29.40;71.90;;;;;;5052787;28;20506;-82
2021/06/11 12:33:17;;;;;;;14.60;13.70;;;29.30;72.50;;;;;;5052188;28;20182;-83